Time,TemperatureF,DewpointF,PressureIn,WindDirection,WindDirectionDegrees,WindSpeedMPH,WindSpeedGustMPH,Humidity,HourlyPrecipIn,Conditions,Clouds,dailyrainin,SoftwareType,DateUTC
2016-02-06 00:03:00,10.0,6.0,30.21,SSW,198,0.0,0.0,82,-99.99,,,-99.99,,2016-02-06 07:03:00,
2016-02-06 00:13:00,10.0,6.0,30.21,SSW,198,0.0,0.0,82,-99.99,,,-99.99,,2016-02-06 07:13:00,
2016-02-06 00:34:00,10.0,6.0,30.20,SSW,197,0.0,7.0,82,-99.99,,,-99.99,,2016-02-06 07:34:00,
2016-02-06 00:44:00,10.0,6.0,30.20,SSW,198,0.0,4.0,82,-99.99,,,-99.99,,2016-02-06 07:44:00,
2016-02-06 00:54:00,10.0,6.0,30.19,SSW,198,0.0,0.0,83,-99.99,,,-99.99,,2016-02-06 07:54:00,
2016-02-06 01:03:00,10.0,6.0,30.19,SSW,198,0.0,0.0,83,-99.99,,,-99.99,,2016-02-06 08:03:00,
2016-02-06 01:13:00,10.0,6.0,30.19,SSW,198,0.0,5.0,83,-99.99,,,-99.99,,2016-02-06 08:13:00,
2016-02-06 01:23:00,10.0,6.0,30.19,SSW,198,0.0,3.0,82,-99.99,,,-99.99,,2016-02-06 08:23:00,
2016-02-06 01:34:00,10.0,6.0,30.19,SSW,197,3.0,5.0,82,-99.99,,,-99.99,,2016-02-06 08:34:00,
2016-02-06 01:44:00,9.0,5.0,30.19,SSW,210,1.0,7.0,82,-99.99,,,-99.99,,2016-02-06 08:44:00,
2016-02-06 01:54:00,10.0,6.0,30.19,SSW,211,0.0,5.0,82,-99.99,,,-99.99,,2016-02-06 08:54:00,
2016-02-06 02:04:00,10.0,5.0,30.19,SSW,211,0.0,0.0,81,-99.99,,,-99.99,,2016-02-06 09:04:00,
2016-02-06 02:13:00,9.0,4.0,30.19,SSW,211,0.0,0.0,81,-99.99,,,-99.99,,2016-02-06 09:13:00,
2016-02-06 02:24:00,9.0,4.0,30.19,SSW,211,0.0,0.0,81,-99.99,,,-99.99,,2016-02-06 09:24:00,
2016-02-06 02:34:00,9.0,4.0,30.19,SSW,211,0.0,0.0,81,-99.99,,,-99.99,,2016-02-06 09:34:00,
2016-02-06 02:44:00,8.0,4.0,30.19,SSW,211,0.0,0.0,82,-99.99,,,-99.99,,2016-02-06 09:44:00,
2016-02-06 03:03:00,9.0,5.0,30.19,SSW,211,0.0,0.0,83,-99.99,,,-99.99,,2016-02-06 10:03:00,
2016-02-06 03:13:00,9.0,5.0,30.19,SSW,211,0.0,0.0,83,-99.99,,,-99.99,,2016-02-06 10:13:00,
2016-02-06 03:36:00,9.0,5.0,30.18,SSW,211,0.0,0.0,83,-99.99,,,-99.99,,2016-02-06 10:36:00,
2016-02-06 03:44:00,8.0,4.0,30.18,SSW,211,0.0,4.0,83,-99.99,,,-99.99,,2016-02-06 10:44:00,
2016-02-06 04:04:00,8.0,4.0,30.18,SSW,211,0.0,0.0,82,-99.99,,,-99.99,,2016-02-06 11:04:00,
2016-02-06 04:13:00,7.0,3.0,30.17,SSW,211,0.0,0.0,82,-99.99,,,-99.99,,2016-02-06 11:13:00,
2016-02-06 04:23:00,7.0,3.0,30.17,SSW,210,1.0,3.0,83,-99.99,,,-99.99,,2016-02-06 11:23:00,
2016-02-06 04:34:00,7.0,3.0,30.17,SSW,211,0.0,4.0,83,-99.99,,,-99.99,,2016-02-06 11:34:00,
2016-02-06 04:44:00,7.0,3.0,30.17,SSW,212,1.0,5.0,82,-99.99,,,-99.99,,2016-02-06 11:44:00,
2016-02-06 04:54:00,6.0,2.0,30.18,SSW,212,0.0,0.0,82,-99.99,,,-99.99,,2016-02-06 11:54:00,
2016-02-06 05:03:00,6.0,2.0,30.17,SSW,212,0.0,0.0,82,-99.99,,,-99.99,,2016-02-06 12:03:00,
2016-02-06 05:13:00,6.0,2.0,30.16,SSW,211,1.0,4.0,83,-99.99,,,-99.99,,2016-02-06 12:13:00,
2016-02-06 05:24:00,6.0,2.0,30.17,SSW,212,1.0,3.0,84,-99.99,,,-99.99,,2016-02-06 12:24:00,
2016-02-06 05:34:00,6.0,2.0,30.16,SSW,212,3.0,4.0,83,-99.99,,,-99.99,,2016-02-06 12:34:00,
2016-02-06 05:54:00,6.0,2.0,30.17,SSW,213,0.0,0.0,84,-99.99,,,-99.99,,2016-02-06 12:54:00,
2016-02-06 06:04:00,6.0,2.0,30.16,SSW,213,0.0,0.0,84,-99.99,,,-99.99,,2016-02-06 13:04:00,
2016-02-06 06:13:00,6.0,2.0,30.17,SSW,213,0.0,0.0,84,-99.99,,,-99.99,,2016-02-06 13:13:00,
2016-02-06 06:24:00,6.0,2.0,30.16,SSW,213,0.0,0.0,84,-99.99,,,-99.99,,2016-02-06 13:24:00,
2016-02-06 06:34:00,6.0,2.0,30.16,SSW,212,2.0,4.0,83,-99.99,,,-99.99,,2016-02-06 13:34:00,
2016-02-06 06:44:00,6.0,2.0,30.16,SW,214,2.0,6.0,83,-99.99,,,-99.99,,2016-02-06 13:44:00,
2016-02-06 06:54:00,6.0,2.0,30.16,SW,214,1.0,5.0,83,-99.99,,,-99.99,,2016-02-06 13:54:00,
2016-02-06 07:04:00,6.0,2.0,30.16,SW,215,1.0,6.0,83,-99.99,,,-99.99,,2016-02-06 14:04:00,
2016-02-06 07:13:00,7.0,3.0,30.16,WSW,253,5.0,7.0,83,-99.99,,,-99.99,,2016-02-06 14:13:00,
2016-02-06 07:24:00,8.0,4.0,30.16,West,259,0.0,6.0,84,-99.99,,,-99.99,,2016-02-06 14:24:00,
2016-02-06 07:34:00,8.0,4.0,30.16,West,259,0.0,6.0,84,-99.99,,,-99.99,,2016-02-06 14:34:00,
2016-02-06 07:44:00,8.0,4.0,30.16,West,266,0.0,6.0,84,-99.99,,,-99.99,,2016-02-06 14:44:00,
2016-02-06 07:54:00,9.0,5.0,30.15,West,266,0.0,0.0,83,-99.99,,,-99.99,,2016-02-06 14:54:00,
2016-02-06 08:13:00,10.0,6.0,30.15,West,280,1.0,4.0,83,-99.99,,,-99.99,,2016-02-06 15:13:00,
2016-02-06 08:23:00,12.0,8.0,30.16,WNW,303,0.0,5.0,83,-99.99,,,-99.99,,2016-02-06 15:23:00,
2016-02-06 08:34:00,14.0,9.0,30.16,WNW,301,1.0,4.0,81,-99.99,,,-99.99,,2016-02-06 15:34:00,
2016-02-06 08:44:00,14.0,8.0,30.15,WNW,296,0.0,2.0,78,-99.99,,,-99.99,,2016-02-06 15:44:00,
2016-02-06 09:14:00,16.0,9.0,30.15,North,11,0.0,3.0,72,-99.99,,,-99.99,,2016-02-06 16:14:00,
2016-02-06 09:24:00,18.0,10.0,30.14,North,11,0.0,0.0,71,-99.99,,,-99.99,,2016-02-06 16:24:00,
2016-02-06 09:34:00,21.0,12.0,30.14,North,11,0.0,0.0,68,-99.99,,,-99.99,,2016-02-06 16:34:00,
2016-02-06 10:15:00,24.0,13.0,30.14,NE,53,0.0,5.0,61,-99.99,,,-99.99,,2016-02-06 17:15:00,
2016-02-06 10:23:00,25.0,13.0,30.13,ENE,58,0.0,3.0,61,-99.99,,,-99.99,,2016-02-06 17:23:00,
2016-02-06 10:34:00,26.0,14.0,30.14,ENE,58,0.0,0.0,60,-99.99,,,-99.99,,2016-02-06 17:34:00,
2016-02-06 10:44:00,26.0,15.0,30.14,ENE,77,0.0,3.0,62,-99.99,,,-99.99,,2016-02-06 17:44:00,
2016-02-06 11:04:00,27.0,16.0,30.14,ESE,112,1.0,5.0,62,-99.99,,,-99.99,,2016-02-06 18:04:00,
2016-02-06 11:14:00,28.0,17.0,30.15,ESE,111,0.0,1.0,62,-99.99,,,-99.99,,2016-02-06 18:14:00,
2016-02-06 11:24:00,29.0,17.0,30.14,SE,130,0.0,4.0,60,-99.99,,,-99.99,,2016-02-06 18:24:00,
2016-02-06 11:34:00,29.0,16.0,30.12,SE,129,4.0,5.0,58,-99.99,,,-99.99,,2016-02-06 18:34:00,
2016-02-06 11:55:00,29.0,16.0,30.12,ESE,107,1.0,7.0,58,-99.99,,,-99.99,,2016-02-06 18:55:00,
2016-02-06 12:04:00,29.0,16.0,30.13,North,352,3.0,6.0,59,-99.99,,,-99.99,,2016-02-06 19:04:00,
2016-02-06 12:13:00,30.0,17.0,30.12,NW,321,0.0,-999.0,57,-99.99,,,-99.99,,2016-02-06 19:13:00,
2016-02-06 12:34:00,33.0,18.0,30.12,North,354,0.0,6.0,53,-99.99,,,-99.99,,2016-02-06 19:34:00,
2016-02-06 12:44:00,34.0,17.0,30.11,NE,40,0.0,7.0,50,-99.99,,,-99.99,,2016-02-06 19:44:00,
2016-02-06 12:54:00,34.0,18.0,30.11,NE,34,3.0,10.0,51,-99.99,,,-99.99,,2016-02-06 19:54:00,
2016-02-06 13:04:00,35.0,19.0,30.09,SSE,150,0.0,3.0,51,-99.99,,,-99.99,,2016-02-06 20:04:00,
2016-02-06 13:13:00,35.0,18.0,30.10,East,88,1.0,-999.0,50,-99.99,,,-99.99,,2016-02-06 20:13:00,
2016-02-06 13:24:00,35.0,18.0,30.08,SE,142,0.0,2.0,49,-99.99,,,-99.99,,2016-02-06 20:24:00,
2016-02-06 13:36:00,36.0,20.0,30.09,East,80,2.0,5.0,51,-99.99,,,-99.99,,2016-02-06 20:36:00,
2016-02-06 13:44:00,37.0,20.0,30.06,SSE,163,0.0,5.0,49,-99.99,,,-99.99,,2016-02-06 20:44:00,
2016-02-06 13:54:00,39.0,19.0,30.07,South,170,0.0,1.0,44,-99.99,,,-99.99,,2016-02-06 20:54:00,
2016-02-06 14:04:00,39.0,19.0,30.07,SE,129,0.0,4.0,45,-99.99,,,-99.99,,2016-02-06 21:04:00,
2016-02-06 14:13:00,38.0,20.0,30.06,ESE,117,0.0,7.0,47,-99.99,,,-99.99,,2016-02-06 21:13:00,
2016-02-06 14:24:00,39.0,20.0,30.06,ESE,123,0.0,4.0,46,-99.99,,,-99.99,,2016-02-06 21:24:00,
2016-02-06 14:34:00,40.0,20.0,30.05,ESE,123,0.0,1.0,44,-99.99,,,-99.99,,2016-02-06 21:34:00,
2016-02-06 14:44:00,40.0,20.0,30.04,ESE,119,0.0,4.0,44,-99.99,,,-99.99,,2016-02-06 21:44:00,
2016-02-06 15:14:00,40.0,21.0,30.04,ESE,115,0.0,2.0,46,-99.99,,,-99.99,,2016-02-06 22:14:00,
2016-02-06 15:24:00,40.0,21.0,30.05,ESE,110,2.0,5.0,46,-99.99,,,-99.99,,2016-02-06 22:24:00,
2016-02-06 15:55:00,38.0,21.0,30.04,East,88,2.0,6.0,50,-99.99,,,-99.99,,2016-02-06 22:55:00,
2016-02-06 16:03:00,38.0,22.0,30.04,East,89,0.0,2.0,51,-99.99,,,-99.99,,2016-02-06 23:03:00,
2016-02-06 16:34:00,38.0,23.0,30.04,SE,124,1.0,4.0,55,-99.99,,,-99.99,,2016-02-06 23:34:00,
2016-02-06 16:44:00,37.0,23.0,30.04,North,5,0.0,4.0,56,-99.99,,,-99.99,,2016-02-06 23:44:00,
2016-02-06 17:05:00,36.0,23.0,30.04,SE,133,0.0,5.0,58,-99.99,,,-99.99,,2016-02-07 00:05:00,
2016-02-06 17:13:00,36.0,23.0,30.05,ENE,63,2.0,6.0,59,-99.99,,,-99.99,,2016-02-07 00:13:00,
2016-02-06 17:23:00,36.0,22.0,30.04,North,354,0.0,7.0,57,-99.99,,,-99.99,,2016-02-07 00:23:00,
2016-02-06 17:44:00,35.0,23.0,30.04,SSW,195,4.0,6.0,61,-99.99,,,-99.99,,2016-02-07 00:44:00,
2016-02-06 17:53:00,35.0,23.0,30.03,SW,225,3.0,7.0,61,-99.99,,,-99.99,,2016-02-07 00:53:00,
2016-02-06 18:03:00,35.0,23.0,30.04,WSW,250,0.0,7.0,60,-99.99,,,-99.99,,2016-02-07 01:03:00,
2016-02-06 18:13:00,35.0,21.0,30.05,SE,132,8.0,14.0,57,-99.99,,,-99.99,,2016-02-07 01:13:00,
2016-02-06 18:23:00,35.0,21.0,30.06,SSE,160,7.0,10.0,56,-99.99,,,-99.99,,2016-02-07 01:23:00,
2016-02-06 18:43:00,37.0,22.0,30.05,SW,222,6.0,16.0,54,-99.99,,,-99.99,,2016-02-07 01:43:00,
2016-02-06 18:53:00,39.0,22.0,30.05,West,278,1.0,8.0,50,-99.99,,,-99.99,,2016-02-07 01:53:00,
2016-02-06 19:13:00,43.0,22.0,30.04,West,260,4.0,22.0,42,-99.99,,,-99.99,,2016-02-07 02:13:00,
2016-02-06 19:23:00,44.0,20.0,30.04,NW,322,6.0,19.0,38,-99.99,,,-99.99,,2016-02-07 02:23:00,
2016-02-06 19:44:00,44.0,19.0,30.04,NW,308,2.0,5.0,36,-99.99,,,-99.99,,2016-02-07 02:44:00,